Aérodrome :
LOGIN :

S'inscrire | Disclaimer

   EN    FR    IT 

 










Légende :    VFR   VFR Marginal   IFR   IFR Intensif   IFR Très Intensif
Visi : 
Plafond : 
>= 8 km
>= 3000ft
5 à 8 km
1000 à 3000 ft
1500m à 5 km
500 à 1000 ft
800 à 1500m
200 à 500 ft
< 800m
< 200 ft
Symboles :   Orages  Brouillard  Fortes neiges  Fortes précipitations  Vent > 20 kt
SIGMETs :   Divers  Orages  Givrage  Turbulence  Onde Orograph.  Cendres Volcan.






- Altitude de l'aérodrome : 240 ft
- Code IATA : VLC


LEVC - Valencia Manises

DERNIER METAR :
  • 050700Z 23004KT 200V280 CAVOK 21/09 Q1011 NOSIG

METARs EXPIRÉS :
  • 050630Z VRB02KT CAVOK 19/11 Q1011 NOSIG
  • 050600Z 00000KT CAVOK 17/12 Q1010 NOSIG
  • 050530Z 29003KT 200V330 CAVOK 15/11 Q1010 NOSIG
  • 050500Z 28003KT CAVOK 14/11 Q1010 NOSIG
  • 050430Z 25005KT 230V320 CAVOK 15/10 Q1010 NOSIG
  • 050400Z 23003KT 210V280 9999 FEW045 15/10 Q1009 NOSIG

TAF TAF LEVC
Valide du 05 à 06h jusqu'au 06 à 06h UTC


050500Z 0506/0606 VRB04KT CAVOK TX31/0512Z TN17/0506Z
BECMG 0511/0513 12012KT
BECMG 0517/0519 VRB04KT



MET'MAP, la Météo Aéronautique d'un coup d'oeil ! - Copyright ORBIFLY Décembre 2007 - Disclaimer

ORBIFLY MET'MAP TEAM :

Programmation & Développement : Alexandra Zaïnal
Sur une idée originale de : Baudouin d'Aumeries
Assistance à la programmation : Marc-Olivier Méhu
Soutien technique & logistique : Manuel Goepfert

Contact : metmap@orbifly.com




SOURCES & CREDITS :

   NOAA